Time;durP1;ratioP1;P1;durP2;ratioP2;P2;SDS_P1;SDS_P2;PMS_P1;PMS_P2;Temp;Humidity;BMP_temperature;BMP_pressure;BME280_temperature;BME280_humidity;BME280_pressure;Samples;Min_cycle;Max_cycle;Signal;HPM_P1;HPM_P2
2023/06/10 00:00:50;;;;;;;6.75;5.47;;;;;;;;;;5013439;28;20184;-47
2023/06/10 00:03:16;;;;;;;7.45;5.57;;;;;;;;;;5014362;28;20196;-47
2023/06/10 00:05:42;;;;;;;6.00;5.40;;;;;;;;;;5008939;28;20747;-47
2023/06/10 00:08:08;;;;;;;8.48;5.45;;;;;;;;;;5008954;28;20290;-47
2023/06/10 00:10:35;;;;;;;6.13;5.53;;;;;;;;;;5013664;28;20184;-48
2023/06/10 00:13:02;;;;;;;6.00;5.40;;;;;;;;;;5013314;28;20256;-47
2023/06/10 00:15:28;;;;;;;6.20;5.30;;;;;;;;;;5011517;28;20193;-47
2023/06/10 00:17:54;;;;;;;7.03;5.55;;;;;;;;;;5006093;28;20196;-48
2023/06/10 00:20:23;;;;;;;6.97;5.63;;;;;;;;;;5014234;28;20192;-48
2023/06/10 00:22:49;;;;;;;5.38;4.88;;;;;;;;;;5016988;28;20211;-47
2023/06/10 00:25:15;;;;;;;5.97;5.38;;;;;;;;;;5013410;28;20263;-47
2023/06/10 00:27:41;;;;;;;6.00;5.40;;;;;;;;;;5012953;28;20271;-47
2023/06/10 00:30:07;;;;;;;5.93;5.32;;;;;;;;;;5016184;28;20314;-47
2023/06/10 00:32:36;;;;;;;6.05;5.55;;;;;;;;;;5011066;28;20450;-47
2023/06/10 00:35:06;;;;;;;5.88;5.28;;;;;;;;;;5012432;28;20237;-47
2023/06/10 00:37:32;;;;;;;6.70;5.32;;;;;;;;;;5016723;28;20191;-47
2023/06/10 00:39:58;;;;;;;5.30;4.80;;;;;;;;;;5016197;28;20192;-47
2023/06/10 00:42:24;;;;;;;5.82;4.72;;;;;;;;;;5021805;28;20189;-47
2023/06/10 00:44:52;;;;;;;5.88;5.13;;;;;;;;;;5014462;28;20554;-47
2023/06/10 00:47:19;;;;;;;6.00;5.43;;;;;;;;;;5013940;28;20184;-47
2023/06/10 00:49:45;;;;;;;5.60;5.10;;;;;;;;;;5015492;28;20180;-47
2023/06/10 00:52:11;;;;;;;6.85;5.32;;;;;;;;;;5008140;28;20191;-47
2023/06/10 00:54:38;;;;;;;6.50;5.35;;;;;;;;;;5008683;28;20295;-47
2023/06/10 00:57:05;;;;;;;6.80;5.15;;;;;;;;;;5009285;28;20231;-47
2023/06/10 00:59:32;;;;;;;5.63;5.05;;;;;;;;;;5016743;28;20188;-48
2023/06/10 01:01:58;;;;;;;5.53;5.03;;;;;;;;;;5013257;28;20192;-47
2023/06/10 01:04:24;;;;;;;5.80;5.03;;;;;;;;;;5008330;28;20217;-47
2023/06/10 01:06:50;;;;;;;6.15;5.07;;;;;;;;;;5029667;28;20250;-47
2023/06/10 01:09:25;;;;;;;6.78;5.20;;;;;;;;;;5017163;28;20591;-47
2023/06/10 01:11:54;;;;;;;5.85;5.25;;;;;;;;;;5014958;28;20455;-47
2023/06/10 01:14:22;;;;;;;5.30;4.78;;;;;;;;;;5016262;28;20564;-47
2023/06/10 01:16:48;;;;;;;5.88;5.30;;;;;;;;;;5009506;28;20188;-47
2023/06/10 01:19:17;;;;;;;6.28;5.47;;;;;;;;;;5015862;28;20188;-47
2023/06/10 01:21:48;;;;;;;5.88;5.30;;;;;;;;;;5015272;28;20205;-47
2023/06/10 01:24:14;;;;;;;5.90;5.35;;;;;;;;;;5014527;28;20623;-47
2023/06/10 01:26:41;;;;;;;5.82;5.20;;;;;;;;;;5015908;28;20184;-47
2023/06/10 01:29:15;;;;;;;5.50;5.00;;;;;;;;;;5011823;28;20184;-47
2023/06/10 01:31:54;;;;;;;6.25;5.22;;;;;;;;;;5015081;28;20190;-47
2023/06/10 01:34:21;;;;;;;5.60;5.00;;;;;;;;;;5005082;28;20543;-47
2023/06/10 01:36:48;;;;;;;6.10;5.45;;;;;;;;;;5016476;28;20192;-47
2023/06/10 01:39:16;;;;;;;6.28;5.68;;;;;;;;;;5012380;28;20259;-47
2023/06/10 01:41:41;;;;;;;5.70;5.13;;;;;;;;;;5006475;28;20183;-47
2023/06/10 01:44:07;;;;;;;6.93;5.28;;;;;;;;;;5009419;28;20212;-47
2023/06/10 01:46:33;;;;;;;5.85;5.25;;;;;;;;;;5003591;28;20843;-47
2023/06/10 01:48:59;;;;;;;5.72;5.13;;;;;;;;;;5016315;28;20544;-48
2023/06/10 01:51:25;;;;;;;6.47;5.82;;;;;;;;;;5016362;28;20256;-48
2023/06/10 01:53:51;;;;;;;5.65;5.07;;;;;;;;;;5010309;28;20192;-48
2023/06/10 01:56:19;;;;;;;6.18;5.40;;;;;;;;;;5025162;28;20623;-48
2023/06/10 01:58:45;;;;;;;6.72;5.05;;;;;;;;;;5015218;28;20176;-48
2023/06/10 02:01:11;;;;;;;5.95;5.07;;;;;;;;;;5014247;28;20197;-47
2023/06/10 02:03:37;;;;;;;8.05;5.80;;;;;;;;;;5012272;28;20215;-47
2023/06/10 02:06:03;;;;;;;5.95;5.25;;;;;;;;;;5030258;28;20196;-47
2023/06/10 02:08:29;;;;;;;6.22;5.32;;;;;;;;;;5016107;28;20177;-47
2023/06/10 02:10:55;;;;;;;6.60;5.20;;;;;;;;;;5015588;28;20690;-47
2023/06/10 02:13:21;;;;;;;5.88;4.68;;;;;;;;;;5014098;28;20199;-47
2023/06/10 02:15:46;;;;;;;7.35;5.40;;;;;;;;;;5011925;28;20261;-47
2023/06/10 02:18:12;;;;;;;6.68;5.15;;;;;;;;;;5016096;28;20219;-48
2023/06/10 02:20:39;;;;;;;7.15;5.05;;;;;;;;;;5015311;28;20192;-47
2023/06/10 02:23:05;;;;;;;6.18;5.57;;;;;;;;;;5011448;28;20599;-47
2023/06/10 02:25:31;;;;;;;5.57;5.00;;;;;;;;;;5010530;28;20191;-47
2023/06/10 02:27:57;;;;;;;6.35;4.63;;;;;;;;;;5011633;28;20185;-47
2023/06/10 02:30:23;;;;;;;6.03;5.43;;;;;;;;;;5011021;28;20552;-48
2023/06/10 02:32:50;;;;;;;6.22;5.50;;;;;;;;;;5008469;28;20196;-47
2023/06/10 02:35:17;;;;;;;6.15;5.10;;;;;;;;;;5013228;28;20489;-47
2023/06/10 02:37:43;;;;;;;6.70;5.35;;;;;;;;;;5015556;28;20180;-47
2023/06/10 02:40:10;;;;;;;6.05;5.45;;;;;;;;;;5014274;28;20208;-47
2023/06/10 02:42:36;;;;;;;5.70;5.10;;;;;;;;;;5014093;28;20177;-47
2023/06/10 02:45:02;;;;;;;6.55;5.30;;;;;;;;;;5010462;28;20289;-47
2023/06/10 02:47:28;;;;;;;7.30;5.10;;;;;;;;;;5009336;28;20283;-47
2023/06/10 02:49:54;;;;;;;6.15;5.43;;;;;;;;;;5014303;28;20560;-48
2023/06/10 02:52:20;;;;;;;6.38;4.82;;;;;;;;;;5020218;28;20221;-47
2023/06/10 02:54:46;;;;;;;5.88;4.97;;;;;;;;;;5011880;28;20199;-47
2023/06/10 02:57:14;;;;;;;6.30;4.60;;;;;;;;;;5010425;28;20193;-47
2023/06/10 02:59:40;;;;;;;6.60;4.97;;;;;;;;;;5011933;28;20238;-48
2023/06/10 03:02:06;;;;;;;7.22;5.13;;;;;;;;;;5006877;28;20471;-48
2023/06/10 03:04:32;;;;;;;4.93;4.40;;;;;;;;;;5011640;28;20208;-47
2023/06/10 03:06:58;;;;;;;7.03;5.38;;;;;;;;;;5008278;28;20429;-48
2023/06/10 03:09:23;;;;;;;5.57;5.00;;;;;;;;;;5014134;28;20580;-48
2023/06/10 03:11:49;;;;;;;5.55;5.05;;;;;;;;;;5008368;28;20335;-48
2023/06/10 03:14:15;;;;;;;5.63;5.03;;;;;;;;;;5009924;28;20195;-47
2023/06/10 03:16:42;;;;;;;5.43;4.93;;;;;;;;;;5009242;28;20279;-47
2023/06/10 03:19:08;;;;;;;6.55;5.22;;;;;;;;;;5009328;28;20177;-47
2023/06/10 03:21:37;;;;;;;5.95;5.38;;;;;;;;;;5012574;28;20214;-47
2023/06/10 03:24:03;;;;;;;5.90;5.25;;;;;;;;;;5010105;28;20233;-48
2023/06/10 03:26:30;;;;;;;6.10;5.20;;;;;;;;;;5011047;28;20200;-48
2023/06/10 03:28:56;;;;;;;6.00;5.40;;;;;;;;;;5010533;28;20184;-48
2023/06/10 03:31:24;;;;;;;6.00;5.40;;;;;;;;;;5012470;28;20192;-48
2023/06/10 03:33:50;;;;;;;6.38;5.78;;;;;;;;;;5011786;28;20181;-48
2023/06/10 03:36:16;;;;;;;5.43;4.93;;;;;;;;;;5009850;28;20563;-48
2023/06/10 03:38:42;;;;;;;8.02;5.95;;;;;;;;;;5011903;28;20188;-48
2023/06/10 03:41:08;;;;;;;7.53;6.60;;;;;;;;;;5012525;28;20181;-48
2023/06/10 03:43:34;;;;;;;7.35;5.30;;;;;;;;;;5007219;28;20566;-48
2023/06/10 03:46:00;;;;;;;8.23;6.82;;;;;;;;;;5010405;28;20188;-48
2023/06/10 03:48:26;;;;;;;7.50;6.20;;;;;;;;;;5013098;28;20192;-48
2023/06/10 03:50:52;;;;;;;10.88;7.00;;;;;;;;;;5013589;28;20184;-51
2023/06/10 03:53:18;;;;;;;7.38;5.95;;;;;;;;;;5000946;28;20181;-48
2023/06/10 03:55:45;;;;;;;6.90;6.18;;;;;;;;;;5009440;28;20241;-48
2023/06/10 03:58:14;;;;;;;7.78;6.93;;;;;;;;;;5016690;28;20180;-48
2023/06/10 04:00:45;;;;;;;6.47;5.88;;;;;;;;;;5017363;28;20458;-48
2023/06/10 04:03:14;;;;;;;7.32;5.28;;;;;;;;;;5012744;28;20520;-48
2023/06/10 04:05:41;;;;;;;7.82;5.30;;;;;;;;;;5005770;28;20173;-48
2023/06/10 04:08:07;;;;;;;7.78;5.80;;;;;;;;;;5011463;28;20577;-48
2023/06/10 04:10:33;;;;;;;6.72;5.88;;;;;;;;;;5017305;28;20204;-48
2023/06/10 04:12:59;;;;;;;7.40;5.88;;;;;;;;;;5017335;28;20266;-48
2023/06/10 04:15:25;;;;;;;9.90;6.45;;;;;;;;;;5016137;28;20176;-48
2023/06/10 04:17:52;;;;;;;7.80;5.60;;;;;;;;;;5014502;28;20188;-48
2023/06/10 04:20:18;;;;;;;8.70;5.70;;;;;;;;;;5017271;28;20196;-48
2023/06/10 04:22:44;;;;;;;6.85;5.88;;;;;;;;;;5017300;28;20196;-48
2023/06/10 04:25:10;;;;;;;7.50;5.50;;;;;;;;;;5016166;28;20189;-48
2023/06/10 04:27:36;;;;;;;9.15;5.70;;;;;;;;;;5015797;28;20440;-48
2023/06/10 04:30:04;;;;;;;7.47;5.68;;;;;;;;;;5017104;28;20183;-48
2023/06/10 04:32:30;;;;;;;6.40;5.78;;;;;;;;;;5013366;28;20176;-48
2023/06/10 04:34:56;;;;;;;8.23;6.07;;;;;;;;;;5012904;28;20532;-48
2023/06/10 04:37:22;;;;;;;6.93;5.40;;;;;;;;;;5031041;28;20209;-48
2023/06/10 04:39:48;;;;;;;7.10;5.88;;;;;;;;;;5012738;28;20192;-48
2023/06/10 04:42:13;;;;;;;6.18;5.50;;;;;;;;;;5014216;28;20615;-48
2023/06/10 04:44:40;;;;;;;6.30;5.70;;;;;;;;;;5015879;28;20216;-48
2023/06/10 04:47:07;;;;;;;7.07;5.07;;;;;;;;;;5016572;28;20541;-48
2023/06/10 04:49:33;;;;;;;5.30;4.80;;;;;;;;;;5012870;28;20181;-48
2023/06/10 04:51:59;;;;;;;8.48;5.40;;;;;;;;;;5008691;28;20316;-45
2023/06/10 04:54:25;;;;;;;6.40;5.72;;;;;;;;;;5010882;28;20212;-46
2023/06/10 04:56:51;;;;;;;8.07;5.80;;;;;;;;;;5017317;28;20192;-48
2023/06/10 04:59:17;;;;;;;7.53;6.35;;;;;;;;;;5015093;28;20267;-49
2023/06/10 05:01:43;;;;;;;12.52;5.95;;;;;;;;;;5016876;28;20192;-48
2023/06/10 05:04:09;;;;;;;7.25;6.25;;;;;;;;;;5014292;28;20203;-47
2023/06/10 05:06:36;;;;;;;10.55;6.07;;;;;;;;;;5013142;28;20177;-47
2023/06/10 05:09:02;;;;;;;9.23;6.05;;;;;;;;;;5011204;28;20184;-47
2023/06/10 05:11:28;;;;;;;10.43;5.80;;;;;;;;;;5004105;28;20184;-47
2023/06/10 05:13:54;;;;;;;9.73;5.07;;;;;;;;;;5006751;28;20188;-47
2023/06/10 05:16:21;;;;;;;6.95;5.90;;;;;;;;;;5004691;28;20227;-47
2023/06/10 05:18:47;;;;;;;10.75;6.20;;;;;;;;;;5009449;28;20254;-47
2023/06/10 05:21:13;;;;;;;8.15;6.07;;;;;;;;;;5011465;28;20640;-47
2023/06/10 05:23:39;;;;;;;7.03;6.25;;;;;;;;;;5015378;28;20231;-47
2023/06/10 05:26:05;;;;;;;7.10;6.40;;;;;;;;;;5014771;28;20204;-47
2023/06/10 05:28:31;;;;;;;9.13;6.18;;;;;;;;;;5016028;28;20271;-47
2023/06/10 05:30:57;;;;;;;7.40;6.07;;;;;;;;;;5015444;28;20196;-47
2023/06/10 05:33:23;;;;;;;9.68;7.45;;;;;;;;;;5016639;28;20367;-47
2023/06/10 05:35:49;;;;;;;7.13;6.32;;;;;;;;;;5008902;28;20185;-48
2023/06/10 05:38:15;;;;;;;8.70;6.70;;;;;;;;;;5009361;28;20185;-47
2023/06/10 05:40:41;;;;;;;9.77;6.28;;;;;;;;;;5008703;28;20185;-47
2023/06/10 05:43:06;;;;;;;9.45;6.78;;;;;;;;;;5013666;28;20295;-49
2023/06/10 05:45:32;;;;;;;7.85;5.75;;;;;;;;;;5003339;28;20192;-50
2023/06/10 05:47:58;;;;;;;7.05;6.35;;;;;;;;;;5012799;28;20212;-50
2023/06/10 05:50:24;;;;;;;10.40;6.30;;;;;;;;;;5004342;28;20196;-52
2023/06/10 05:52:53;;;;;;;8.48;6.63;;;;;;;;;;5011054;28;20504;-50
2023/06/10 05:55:19;;;;;;;8.77;7.18;;;;;;;;;;5004440;28;20187;-50
2023/06/10 05:57:45;;;;;;;8.38;6.80;;;;;;;;;;5004823;28;20219;-50
2023/06/10 06:00:11;;;;;;;9.02;6.95;;;;;;;;;;5005348;28;20211;-51
2023/06/10 06:02:37;;;;;;;7.22;6.38;;;;;;;;;;5007212;28;20195;-50
2023/06/10 06:05:03;;;;;;;7.38;6.25;;;;;;;;;;5010950;28;20207;-51
2023/06/10 06:07:29;;;;;;;7.60;6.63;;;;;;;;;;5003980;28;20464;-50
2023/06/10 06:09:55;;;;;;;8.85;7.63;;;;;;;;;;5005613;28;20177;-50
2023/06/10 06:12:21;;;;;;;9.77;6.80;;;;;;;;;;5008509;28;20175;-50
2023/06/10 06:14:49;;;;;;;8.60;7.35;;;;;;;;;;5006341;28;20311;-51
2023/06/10 06:17:14;;;;;;;7.10;6.40;;;;;;;;;;5008111;28;20272;-51
2023/06/10 06:19:40;;;;;;;9.75;7.00;;;;;;;;;;5003535;28;20287;-51
2023/06/10 06:22:06;;;;;;;7.72;6.30;;;;;;;;;;5008138;28;20216;-51
2023/06/10 06:24:32;;;;;;;9.27;6.47;;;;;;;;;;5005431;28;20228;-50
2023/06/10 06:26:58;;;;;;;8.80;7.13;;;;;;;;;;5012880;28;20219;-50
2023/06/10 06:29:24;;;;;;;10.43;7.78;;;;;;;;;;5009449;28;20472;-51
2023/06/10 06:31:50;;;;;;;7.70;6.05;;;;;;;;;;5026002;28;20522;-50
2023/06/10 06:34:16;;;;;;;8.32;6.60;;;;;;;;;;5002689;28;20189;-51
2023/06/10 06:36:42;;;;;;;6.68;6.07;;;;;;;;;;4997809;28;20231;-51
2023/06/10 06:39:08;;;;;;;7.53;6.15;;;;;;;;;;5002119;28;20187;-50
2023/06/10 06:41:34;;;;;;;7.03;5.53;;;;;;;;;;5000553;28;20560;-51
2023/06/10 06:44:00;;;;;;;7.80;6.65;;;;;;;;;;5018919;28;20249;-50
2023/06/10 06:46:26;;;;;;;7.15;6.07;;;;;;;;;;5004098;28;20209;-49
2023/06/10 06:48:52;;;;;;;7.82;6.25;;;;;;;;;;5005053;28;20548;-50
2023/06/10 06:51:18;;;;;;;8.73;6.47;;;;;;;;;;5006391;28;20187;-50
2023/06/10 06:53:45;;;;;;;8.65;5.75;;;;;;;;;;4998471;28;20251;-51
2023/06/10 06:56:11;;;;;;;16.48;6.85;;;;;;;;;;5001196;28;20188;-52
2023/06/10 06:58:37;;;;;;;6.78;6.13;;;;;;;;;;5002180;28;20185;-51
2023/06/10 07:01:03;;;;;;;7.85;6.43;;;;;;;;;;5005469;28;20193;-51
2023/06/10 07:03:29;;;;;;;7.82;6.05;;;;;;;;;;5001735;28;20196;-51
2023/06/10 07:05:55;;;;;;;8.43;6.55;;;;;;;;;;4999322;28;20452;-50
2023/06/10 07:08:21;;;;;;;8.50;5.63;;;;;;;;;;5002147;28;20578;-50
2023/06/10 07:10:48;;;;;;;7.63;5.88;;;;;;;;;;5004584;28;20190;-51
2023/06/10 07:13:14;;;;;;;6.88;6.18;;;;;;;;;;5004103;28;20203;-50
2023/06/10 07:15:40;;;;;;;7.07;6.30;;;;;;;;;;5003759;28;20572;-51
2023/06/10 07:18:06;;;;;;;7.50;6.32;;;;;;;;;;5003782;28;20231;-50
2023/06/10 07:20:32;;;;;;;8.13;5.82;;;;;;;;;;5001152;28;20487;-50
2023/06/10 07:22:58;;;;;;;10.60;5.53;;;;;;;;;;5002148;28;20295;-50
2023/06/10 07:25:24;;;;;;;9.23;6.00;;;;;;;;;;5003123;28;20210;-50
2023/06/10 07:27:50;;;;;;;9.90;6.22;;;;;;;;;;5004983;28;20468;-50
2023/06/10 07:30:16;;;;;;;8.30;6.00;;;;;;;;;;5004530;28;20208;-51
2023/06/10 07:32:43;;;;;;;6.78;5.57;;;;;;;;;;5011364;28;20214;-50
2023/06/10 07:35:10;;;;;;;9.38;5.95;;;;;;;;;;5011934;28;20264;-50
2023/06/10 07:37:36;;;;;;;6.72;5.90;;;;;;;;;;5007487;28;20208;-50
2023/06/10 07:40:03;;;;;;;8.00;5.97;;;;;;;;;;5011791;28;20220;-50
2023/06/10 07:42:28;;;;;;;8.55;5.95;;;;;;;;;;5009951;28;20454;-50
2023/06/10 07:44:54;;;;;;;7.90;5.88;;;;;;;;;;5009378;28;20669;-51
2023/06/10 07:47:20;;;;;;;6.50;5.72;;;;;;;;;;5005596;28;20607;-50
2023/06/10 07:49:46;;;;;;;8.27;5.40;;;;;;;;;;5005661;28;20185;-50
2023/06/10 07:52:12;;;;;;;6.82;6.10;;;;;;;;;;5003364;28;20184;-50
2023/06/10 07:54:38;;;;;;;8.15;6.22;;;;;;;;;;5006606;28;20188;-50
2023/06/10 07:57:04;;;;;;;6.72;6.03;;;;;;;;;;5020697;28;20189;-50
2023/06/10 07:59:30;;;;;;;7.90;6.47;;;;;;;;;;5004737;28;20312;-50
2023/06/10 08:01:56;;;;;;;9.13;6.15;;;;;;;;;;5002144;28;20267;-51
2023/06/10 08:04:22;;;;;;;6.85;6.15;;;;;;;;;;5007451;28;20216;-50
2023/06/10 08:06:48;;;;;;;9.40;6.10;;;;;;;;;;5000612;28;20235;-50
2023/06/10 08:09:14;;;;;;;8.55;5.90;;;;;;;;;;5012263;28;20517;-51
2023/06/10 08:11:40;;;;;;;8.65;5.80;;;;;;;;;;5012587;28;20219;-50
2023/06/10 08:14:06;;;;;;;7.32;6.13;;;;;;;;;;5004001;28;20271;-51
2023/06/10 08:16:32;;;;;;;7.03;5.95;;;;;;;;;;5009242;28;20275;-50
2023/06/10 08:18:58;;;;;;;7.13;5.97;;;;;;;;;;5009591;28;20236;-51
2023/06/10 08:21:24;;;;;;;10.13;6.07;;;;;;;;;;4998354;28;20200;-50
2023/06/10 08:23:53;;;;;;;8.32;6.15;;;;;;;;;;5001891;28;20308;-50
2023/06/10 08:26:18;;;;;;;7.97;5.50;;;;;;;;;;4999796;28;20184;-50
2023/06/10 08:28:45;;;;;;;9.02;6.22;;;;;;;;;;5004702;28;20189;-51
2023/06/10 08:31:11;;;;;;;7.63;6.45;;;;;;;;;;5006250;28;20216;-51
2023/06/10 08:33:36;;;;;;;7.07;5.97;;;;;;;;;;5010467;28;20208;-50
2023/06/10 08:36:03;;;;;;;8.88;6.93;;;;;;;;;;5009874;28;20484;-50
2023/06/10 08:38:28;;;;;;;8.27;5.43;;;;;;;;;;5010134;28;20215;-50
2023/06/10 08:40:57;;;;;;;10.93;5.82;;;;;;;;;;5010625;28;20446;-50
2023/06/10 08:43:26;;;;;;;7.15;6.03;;;;;;;;;;5013905;28;20215;-51
2023/06/10 08:45:55;;;;;;;7.03;6.32;;;;;;;;;;5013546;28;20211;-52
2023/06/10 08:48:21;;;;;;;7.03;5.95;;;;;;;;;;5016434;28;20201;-51
2023/06/10 08:50:48;;;;;;;8.30;6.35;;;;;;;;;;5014199;28;20181;-50
2023/06/10 08:53:15;;;;;;;8.18;6.30;;;;;;;;;;5016090;28;20187;-51
2023/06/10 08:55:45;;;;;;;8.95;6.13;;;;;;;;;;5009232;28;20592;-51
2023/06/10 08:58:11;;;;;;;8.63;6.75;;;;;;;;;;5011303;28;20326;-51
2023/06/10 09:00:37;;;;;;;8.38;6.47;;;;;;;;;;5010500;28;20268;-50
2023/06/10 09:03:05;;;;;;;8.30;6.28;;;;;;;;;;5011361;28;20292;-51
2023/06/10 09:05:33;;;;;;;8.48;6.45;;;;;;;;;;5012057;28;20179;-52
2023/06/10 09:08:00;;;;;;;8.52;5.65;;;;;;;;;;5015688;28;20180;-51
2023/06/10 09:10:27;;;;;;;8.85;6.28;;;;;;;;;;5013995;28;20549;-51
2023/06/10 09:12:53;;;;;;;11.15;6.40;;;;;;;;;;5005656;28;20188;-50
2023/06/10 09:15:19;;;;;;;7.47;6.38;;;;;;;;;;5004900;28;20397;-51
2023/06/10 09:17:45;;;;;;;9.60;6.55;;;;;;;;;;5008583;28;20544;-50
2023/06/10 09:20:11;;;;;;;9.32;6.72;;;;;;;;;;5010235;28;20496;-51
2023/06/10 09:22:38;;;;;;;8.55;6.93;;;;;;;;;;5008089;28;20199;-50
2023/06/10 09:25:05;;;;;;;7.65;6.53;;;;;;;;;;5001971;28;20220;-50
2023/06/10 09:27:34;;;;;;;8.98;6.60;;;;;;;;;;5005628;28;20326;-50
2023/06/10 09:30:00;;;;;;;11.18;7.28;;;;;;;;;;5010633;28;20177;-51
2023/06/10 09:32:27;;;;;;;9.65;7.20;;;;;;;;;;5003246;28;20187;-50
2023/06/10 09:34:53;;;;;;;8.10;7.28;;;;;;;;;;5007266;28;20268;-51
2023/06/10 09:37:23;;;;;;;9.63;8.13;;;;;;;;;;5005488;28;20371;-51
2023/06/10 09:40:02;;;;;;;9.75;7.43;;;;;;;;;;5000164;28;20192;-51
2023/06/10 09:42:32;;;;;;;8.45;7.32;;;;;;;;;;5005041;28;20181;-51
2023/06/10 09:44:58;;;;;;;11.43;7.38;;;;;;;;;;5006315;28;20204;-50
2023/06/10 09:47:24;;;;;;;10.05;6.65;;;;;;;;;;5006624;28;20195;-51
2023/06/10 09:49:53;;;;;;;9.48;7.55;;;;;;;;;;5006178;28;20180;-51
2023/06/10 09:52:25;;;;;;;7.40;6.70;;;;;;;;;;5003927;28;20246;-51
2023/06/10 09:54:52;;;;;;;11.75;7.30;;;;;;;;;;5004487;28;20180;-51
2023/06/10 09:57:18;;;;;;;7.85;7.05;;;;;;;;;;5009678;28;20188;-51
2023/06/10 09:59:45;;;;;;;12.93;7.50;;;;;;;;;;5010113;28;20731;-51
2023/06/10 10:02:17;;;;;;;11.23;7.43;;;;;;;;;;5006085;28;20188;-52
2023/06/10 10:04:44;;;;;;;12.15;7.50;;;;;;;;;;5012781;28;20212;-50
2023/06/10 10:07:11;;;;;;;9.90;6.93;;;;;;;;;;5010850;28;20180;-51
2023/06/10 10:09:40;;;;;;;8.45;7.25;;;;;;;;;;5008274;28;20192;-51
2023/06/10 10:12:10;;;;;;;12.15;7.03;;;;;;;;;;5011338;28;20168;-51
2023/06/10 10:14:36;;;;;;;10.13;7.55;;;;;;;;;;5011570;28;20203;-51
2023/06/10 10:17:03;;;;;;;9.20;6.85;;;;;;;;;;5009917;28;20239;-50
2023/06/10 10:19:31;;;;;;;14.30;6.80;;;;;;;;;;5014184;28;20216;-50
2023/06/10 10:22:01;;;;;;;9.85;8.02;;;;;;;;;;5011665;28;20192;-51
2023/06/10 10:24:36;;;;;;;10.98;7.47;;;;;;;;;;5011212;28;20218;-50
2023/06/10 10:27:03;;;;;;;8.52;6.55;;;;;;;;;;5010483;28;20226;-50
2023/06/10 10:29:37;;;;;;;10.57;6.68;;;;;;;;;;5023309;28;20208;-50
2023/06/10 10:32:04;;;;;;;8.85;7.30;;;;;;;;;;5011569;28;20181;-50
2023/06/10 10:34:52;;;;;;;9.95;6.85;;;;;;;;;;5009232;28;20176;-50
2023/06/10 10:37:21;;;;;;;10.70;7.53;;;;;;;;;;5012063;28;20595;-50
2023/06/10 10:39:47;;;;;;;11.98;7.43;;;;;;;;;;5012747;28;20223;-50
2023/06/10 10:42:13;;;;;;;14.07;8.13;;;;;;;;;;5012143;28;20188;-50
2023/06/10 10:44:40;;;;;;;9.23;7.80;;;;;;;;;;5014864;28;20207;-50
2023/06/10 10:47:09;;;;;;;17.35;7.90;;;;;;;;;;5012325;28;20184;-50
2023/06/10 10:49:36;;;;;;;11.90;7.80;;;;;;;;;;5010879;28;20180;-51
2023/06/10 10:52:05;;;;;;;11.00;7.80;;;;;;;;;;5010296;28;20979;-50
2023/06/10 10:54:32;;;;;;;9.50;7.07;;;;;;;;;;5005605;28;20185;-50
2023/06/10 10:57:11;;;;;;;9.63;7.15;;;;;;;;;;5003367;28;20189;-51
2023/06/10 10:59:46;;;;;;;8.25;6.93;;;;;;;;;;5007972;28;20280;-50
2023/06/10 11:02:32;;;;;;;7.90;6.20;;;;;;;;;;5012424;28;20183;-50
2023/06/10 11:04:58;;;;;;;10.20;6.80;;;;;;;;;;5008336;28;20235;-50
2023/06/10 11:07:29;;;;;;;8.02;6.38;;;;;;;;;;5012662;28;20201;-50
2023/06/10 11:10:09;;;;;;;6.88;6.25;;;;;;;;;;5006386;28;20191;-50
2023/06/10 11:12:54;;;;;;;6.80;5.75;;;;;;;;;;5007502;28;20264;-51
2023/06/10 11:15:22;;;;;;;6.53;5.82;;;;;;;;;;5008626;28;20250;-50
2023/06/10 11:18:08;;;;;;;7.00;5.78;;;;;;;;;;5007780;28;20198;-50
2023/06/10 11:20:49;;;;;;;5.80;5.20;;;;;;;;;;5009232;28;20192;-50
2023/06/10 11:23:25;;;;;;;7.15;5.50;;;;;;;;;;5014869;28;20220;-51
2023/06/10 11:25:51;;;;;;;5.75;5.13;;;;;;;;;;5013324;28;20211;-50
2023/06/10 11:28:20;;;;;;;7.70;5.10;;;;;;;;;;5013017;28;20560;-51
2023/06/10 11:30:47;;;;;;;6.85;5.40;;;;;;;;;;5005697;28;20283;-50
2023/06/10 11:33:17;;;;;;;5.50;5.00;;;;;;;;;;5019261;28;20195;-50
2023/06/10 11:35:43;;;;;;;6.60;4.68;;;;;;;;;;5015021;28;20191;-51
2023/06/10 11:38:09;;;;;;;6.13;5.05;;;;;;;;;;5011400;28;20208;-51
2023/06/10 11:40:37;;;;;;;5.50;5.00;;;;;;;;;;5002054;28;20196;-51
2023/06/10 11:43:05;;;;;;;6.05;5.15;;;;;;;;;;5010908;28;20587;-50
2023/06/10 11:45:30;;;;;;;5.20;4.53;;;;;;;;;;5012569;28;20588;-50
2023/06/10 11:47:57;;;;;;;6.63;5.30;;;;;;;;;;5013477;28;20263;-52
2023/06/10 11:50:33;;;;;;;6.72;5.07;;;;;;;;;;5005987;28;20348;-51
2023/06/10 11:52:59;;;;;;;8.43;5.38;;;;;;;;;;5007750;28;20180;-50
2023/06/10 11:55:26;;;;;;;5.78;5.18;;;;;;;;;;5007155;28;20797;-50
2023/06/10 11:57:57;;;;;;;7.35;5.50;;;;;;;;;;5006310;28;20267;-50
2023/06/10 12:00:24;;;;;;;5.60;5.07;;;;;;;;;;5011974;28;20176;-50
2023/06/10 12:02:57;;;;;;;6.32;5.25;;;;;;;;;;5012766;28;20180;-50
2023/06/10 12:05:23;;;;;;;5.80;5.22;;;;;;;;;;5012394;28;20195;-51
2023/06/10 12:07:49;;;;;;;5.78;5.20;;;;;;;;;;5012821;28;20188;-50
2023/06/10 12:10:16;;;;;;;5.53;4.85;;;;;;;;;;5010551;28;20267;-50
2023/06/10 12:12:42;;;;;;;5.57;5.07;;;;;;;;;;5013674;28;20556;-51
2023/06/10 12:15:09;;;;;;;8.18;5.35;;;;;;;;;;5007019;28;20208;-50
2023/06/10 12:17:36;;;;;;;5.38;4.68;;;;;;;;;;5013386;28;20569;-51
2023/06/10 12:20:03;;;;;;;7.03;5.15;;;;;;;;;;5018802;28;20224;-51
2023/06/10 12:22:39;;;;;;;6.78;5.30;;;;;;;;;;5011535;28;20187;-51
2023/06/10 12:25:06;;;;;;;6.68;5.28;;;;;;;;;;5016573;28;20330;-50
2023/06/10 12:27:33;;;;;;;9.00;5.15;;;;;;;;;;5013232;28;20586;-50
2023/06/10 12:30:01;;;;;;;9.30;5.35;;;;;;;;;;5013664;28;20222;-50
2023/06/10 12:32:56;;;;;;;7.03;5.38;;;;;;;;;;5016027;28;20172;-50
2023/06/10 12:35:24;;;;;;;8.48;4.75;;;;;;;;;;5009706;28;20195;-50
2023/06/10 12:37:57;;;;;;;6.25;5.07;;;;;;;;;;5012256;28;20193;-50
2023/06/10 12:40:27;;;;;;;6.40;5.28;;;;;;;;;;5018979;28;20235;-50
2023/06/10 12:42:54;;;;;;;6.70;4.90;;;;;;;;;;5011812;28;20484;-52
2023/06/10 12:45:33;;;;;;;12.23;4.60;;;;;;;;;;5012598;28;20218;-51
2023/06/10 12:48:29;;;;;;;5.70;4.32;;;;;;;;;;5015710;28;20204;-51
2023/06/10 12:50:55;;;;;;;6.18;4.53;;;;;;;;;;5011124;28;20236;-51
2023/06/10 12:53:22;;;;;;;7.82;4.85;;;;;;;;;;5015530;28;20180;-51
2023/06/10 12:55:49;;;;;;;5.70;4.70;;;;;;;;;;5016460;28;20189;-51
2023/06/10 12:58:15;;;;;;;6.32;4.38;;;;;;;;;;5011994;28;20279;-51
2023/06/10 13:00:42;;;;;;;4.85;4.30;;;;;;;;;;5015399;28;20259;-51
2023/06/10 13:03:08;;;;;;;6.10;4.40;;;;;;;;;;5014280;28;20184;-50
2023/06/10 13:05:37;;;;;;;4.95;4.03;;;;;;;;;;5016326;28;20212;-50
2023/06/10 13:08:03;;;;;;;4.15;3.70;;;;;;;;;;5014783;28;20730;-51
2023/06/10 13:10:29;;;;;;;5.57;4.28;;;;;;;;;;5013534;28;20219;-50
2023/06/10 13:12:55;;;;;;;4.43;3.80;;;;;;;;;;5017697;28;20463;-51
2023/06/10 13:15:20;;;;;;;4.65;4.05;;;;;;;;;;5020741;28;20191;-50
2023/06/10 13:17:49;;;;;;;5.05;4.15;;;;;;;;;;5013781;28;20189;-51
2023/06/10 13:20:16;;;;;;;4.22;3.83;;;;;;;;;;5016196;28;20206;-50
2023/06/10 13:22:42;;;;;;;5.15;4.07;;;;;;;;;;5016186;28;20190;-50
2023/06/10 13:25:08;;;;;;;4.95;3.97;;;;;;;;;;5013599;28;20201;-50
2023/06/10 13:27:34;;;;;;;5.25;4.07;;;;;;;;;;5013764;28;20208;-51
2023/06/10 13:30:00;;;;;;;5.35;3.72;;;;;;;;;;5013682;28;20212;-51
2023/06/10 13:32:26;;;;;;;5.47;4.30;;;;;;;;;;5001443;28;20505;-51
2023/06/10 13:34:56;;;;;;;4.20;3.80;;;;;;;;;;5015565;28;20188;-51
2023/06/10 13:37:22;;;;;;;6.05;3.72;;;;;;;;;;5012032;28;20218;-51
2023/06/10 13:39:50;;;;;;;5.07;4.07;;;;;;;;;;5014116;28;20608;-50
2023/06/10 13:42:19;;;;;;;4.90;3.60;;;;;;;;;;5012671;28;20176;-50
2023/06/10 13:44:48;;;;;;;6.50;3.72;;;;;;;;;;5012684;28;20291;-50
2023/06/10 13:47:15;;;;;;;4.78;3.72;;;;;;;;;;5009187;28;20211;-50
2023/06/10 13:49:41;;;;;;;4.82;3.70;;;;;;;;;;5014681;28;20231;-51
2023/06/10 13:52:07;;;;;;;7.05;3.63;;;;;;;;;;5015627;28;20185;-50
2023/06/10 13:54:35;;;;;;;4.78;3.65;;;;;;;;;;5015564;28;20202;-51
2023/06/10 13:57:01;;;;;;;8.25;3.67;;;;;;;;;;5016377;28;20188;-50
2023/06/10 13:59:27;;;;;;;4.90;3.78;;;;;;;;;;5014063;28;20211;-50
2023/06/10 14:01:53;;;;;;;6.13;3.72;;;;;;;;;;5014789;28;20218;-50
2023/06/10 14:04:19;;;;;;;6.65;4.03;;;;;;;;;;5013061;28;20751;-50
2023/06/10 14:06:45;;;;;;;5.88;3.70;;;;;;;;;;5016073;28;20181;-50
2023/06/10 14:09:13;;;;;;;9.25;4.20;;;;;;;;;;5011404;28;20191;-50
2023/06/10 14:11:39;;;;;;;7.63;4.20;;;;;;;;;;5015584;28;20563;-51
2023/06/10 14:14:05;;;;;;;6.85;4.40;;;;;;;;;;5014043;28;20188;-51
2023/06/10 14:16:31;;;;;;;10.32;4.70;;;;;;;;;;5012894;28;20259;-50
2023/06/10 14:18:57;;;;;;;12.10;4.55;;;;;;;;;;5011116;28;20259;-51
2023/06/10 14:21:22;;;;;;;6.97;4.38;;;;;;;;;;5015429;28;20475;-51
2023/06/10 14:23:50;;;;;;;6.32;4.70;;;;;;;;;;5012508;28;20212;-50
2023/06/10 14:26:15;;;;;;;9.27;5.00;;;;;;;;;;5011959;28;20188;-51
2023/06/10 14:28:41;;;;;;;6.53;4.70;;;;;;;;;;5011012;28;20179;-50
2023/06/10 14:31:07;;;;;;;5.57;4.15;;;;;;;;;;5013730;28;20188;-51
2023/06/10 14:33:33;;;;;;;6.07;4.20;;;;;;;;;;5014995;28;20575;-50
2023/06/10 14:35:59;;;;;;;4.60;4.13;;;;;;;;;;5014449;28;20204;-50
2023/06/10 14:38:25;;;;;;;4.70;4.15;;;;;;;;;;5010489;28;20229;-50
2023/06/10 14:40:52;;;;;;;7.47;4.50;;;;;;;;;;5013229;28;20609;-50